createdAt,value
2022-11-15T00:00:12.813Z,6.00
2022-11-15T00:03:19.535Z,6.00
2022-11-15T00:06:25.692Z,6.00
2022-11-15T00:09:31.706Z,6.00
2022-11-15T00:12:37.466Z,6.00
2022-11-15T00:15:44.705Z,5.90
2022-11-15T00:18:51.178Z,5.90
2022-11-15T00:21:56.847Z,5.90
2022-11-15T00:25:02.993Z,5.90
2022-11-15T00:28:09.074Z,5.90
2022-11-15T00:31:16.764Z,5.80
2022-11-15T00:34:22.467Z,5.80
2022-11-15T00:37:28.314Z,5.80
2022-11-15T00:40:34.399Z,5.80
2022-11-15T00:43:41.261Z,5.70
2022-11-15T00:46:48.788Z,5.70
2022-11-15T00:49:54.713Z,5.70
2022-11-15T00:53:00.757Z,5.70
2022-11-15T00:56:06.716Z,5.60
2022-11-15T00:59:12.401Z,5.60
2022-11-15T01:02:19.647Z,5.50
2022-11-15T01:05:28.741Z,5.50
2022-11-15T01:08:33.980Z,5.50
2022-11-15T01:11:40.261Z,5.40
2022-11-15T01:14:46.262Z,5.40
2022-11-15T01:17:53.580Z,5.40
2022-11-15T01:20:59.702Z,5.50
2022-11-15T01:24:05.969Z,5.40
2022-11-15T01:27:12.551Z,5.40
2022-11-15T01:30:18.851Z,5.40
2022-11-15T01:33:26.261Z,5.40
2022-11-15T01:36:32.397Z,5.40
2022-11-15T01:39:38.406Z,5.40
2022-11-15T01:42:44.483Z,5.30
2022-11-15T01:45:55.043Z,5.30
2022-11-15T01:49:06.067Z,5.30
2022-11-15T01:52:17.227Z,5.30
2022-11-15T01:55:26.884Z,5.30
2022-11-15T01:58:33.453Z,5.30
2022-11-15T02:01:39.545Z,5.30
2022-11-15T02:04:48.874Z,5.30
2022-11-15T02:07:55.695Z,5.30
2022-11-15T02:11:01.626Z,5.20
2022-11-15T02:14:09.438Z,5.30
2022-11-15T02:17:32.025Z,5.30
2022-11-15T02:20:49.413Z,5.20
2022-11-15T02:24:14.568Z,5.20
2022-11-15T02:27:43.902Z,5.20
2022-11-15T02:30:55.197Z,5.20
2022-11-15T02:34:10.665Z,5.10
2022-11-15T02:37:23.991Z,5.00
2022-11-15T02:40:36.933Z,5.00
2022-11-15T02:44:02.159Z,5.00
2022-11-15T02:47:14.736Z,4.90
2022-11-15T02:50:24.215Z,4.80
2022-11-15T02:53:31.151Z,4.80
2022-11-15T02:56:37.118Z,4.80
2022-11-15T03:00:01.419Z,4.80
2022-11-15T03:03:26.637Z,4.80
2022-11-15T03:06:41.409Z,4.80
2022-11-15T03:09:54.508Z,4.70
2022-11-15T03:13:06.029Z,4.70
2022-11-15T03:16:17.779Z,4.60
2022-11-15T03:19:31.579Z,4.60
2022-11-15T03:22:41.393Z,4.60
2022-11-15T03:25:50.707Z,4.50
2022-11-15T03:28:59.858Z,4.50
2022-11-15T03:32:09.885Z,4.50
2022-11-15T03:35:22.781Z,4.50
2022-11-15T03:38:33.049Z,4.50
2022-11-15T03:41:43.953Z,4.50
2022-11-15T03:44:57.019Z,4.50
2022-11-15T03:48:09.591Z,4.60
2022-11-15T03:51:18.482Z,4.60
2022-11-15T03:54:24.171Z,4.50
2022-11-15T03:57:30.114Z,4.60
2022-11-15T04:00:35.984Z,4.60
2022-11-15T04:03:42.381Z,4.50
2022-11-15T04:06:49.959Z,4.60
2022-11-15T04:10:09.912Z,4.50
2022-11-15T04:13:15.488Z,4.50
2022-11-15T04:16:21.615Z,4.50
2022-11-15T04:19:41.214Z,4.50
2022-11-15T04:23:02.332Z,4.50
2022-11-15T04:26:09.200Z,4.50
2022-11-15T04:29:32.706Z,4.40
2022-11-15T04:32:37.464Z,4.50
2022-11-15T04:35:42.831Z,4.40
2022-11-15T04:38:49.256Z,4.40
2022-11-15T04:41:55.372Z,4.40
2022-11-15T04:45:01.105Z,4.30
2022-11-15T04:48:07.344Z,4.30
2022-11-15T04:51:13.336Z,4.30
2022-11-15T04:54:20.884Z,4.30
2022-11-15T04:57:26.577Z,4.30
2022-11-15T05:00:32.677Z,4.20
2022-11-15T05:03:52.634Z,4.20
2022-11-15T05:06:57.522Z,4.20
2022-11-15T05:10:03.733Z,4.10
2022-11-15T05:13:09.635Z,4.10
2022-11-15T05:16:15.845Z,4.10
2022-11-15T05:19:21.367Z,4.10
2022-11-15T05:22:26.979Z,4.10
2022-11-15T05:25:34.309Z,4.10
2022-11-15T05:28:40.647Z,4.00
2022-11-15T05:31:46.154Z,4.10
2022-11-15T05:34:52.253Z,4.10
2022-11-15T05:37:58.685Z,4.00
2022-11-15T05:41:07.437Z,4.00
2022-11-15T05:44:16.900Z,4.10
2022-11-15T05:47:27.159Z,4.10
2022-11-15T05:50:33.315Z,4.10
2022-11-15T05:53:39.629Z,4.00
2022-11-15T05:56:47.022Z,4.00
2022-11-15T05:59:53.393Z,4.00
2022-11-15T06:02:59.076Z,4.00
2022-11-15T06:06:05.200Z,3.90
2022-11-15T06:09:10.868Z,3.90
2022-11-15T06:12:18.323Z,3.90
2022-11-15T06:15:24.370Z,3.90
2022-11-15T06:18:30.641Z,3.90
2022-11-15T06:21:36.712Z,3.90
2022-11-15T06:24:42.370Z,3.90
2022-11-15T06:27:56.662Z,3.90
2022-11-15T06:31:05.989Z,3.90
2022-11-15T06:34:12.349Z,3.90
2022-11-15T06:37:18.688Z,3.90
2022-11-15T06:40:24.506Z,3.90
2022-11-15T06:43:32.216Z,3.80
2022-11-15T06:46:38.951Z,3.80
2022-11-15T06:49:44.814Z,3.90
2022-11-15T06:52:51.010Z,3.90
2022-11-15T06:56:01.961Z,3.90
2022-11-15T06:59:09.212Z,3.90
2022-11-15T07:02:15.545Z,3.90
2022-11-15T07:05:21.501Z,3.90
2022-11-15T07:08:30.353Z,4.00
2022-11-15T07:11:36.566Z,4.00
2022-11-15T07:14:43.571Z,4.00
2022-11-15T07:17:49.233Z,4.00
2022-11-15T07:20:55.302Z,4.00
2022-11-15T07:24:01.109Z,4.00
2022-11-15T07:27:07.363Z,4.00
2022-11-15T07:30:16.934Z,4.00
2022-11-15T07:33:23.642Z,4.00
2022-11-15T07:36:29.516Z,4.00
2022-11-15T07:39:35.986Z,4.00
2022-11-15T07:42:55.916Z,4.00
2022-11-15T07:46:10.371Z,4.00
2022-11-15T07:49:16.327Z,4.10
2022-11-15T07:52:22.462Z,4.10
2022-11-15T07:55:30.825Z,4.20
2022-11-15T07:58:36.824Z,4.20
2022-11-15T08:01:44.244Z,4.20
2022-11-15T08:04:50.605Z,4.30
2022-11-15T08:07:58.201Z,4.40
2022-11-15T08:11:04.511Z,4.70
2022-11-15T08:14:10.200Z,4.90
2022-11-15T08:17:17.396Z,5.10
2022-11-15T08:20:23.682Z,5.40
2022-11-15T08:23:30.319Z,5.50
2022-11-15T08:26:36.618Z,5.70
2022-11-15T08:29:43.438Z,6.00
2022-11-15T08:32:51.368Z,6.10
2022-11-15T08:35:59.601Z,6.30
2022-11-15T08:39:06.228Z,6.50
2022-11-15T08:42:16.948Z,6.70
2022-11-15T08:45:25.653Z,6.80
2022-11-15T08:48:33.632Z,6.80
2022-11-15T08:51:40.817Z,6.80
2022-11-15T08:54:47.417Z,6.80
2022-11-15T08:57:53.982Z,6.90
2022-11-15T09:00:59.919Z,6.90
2022-11-15T09:04:07.150Z,6.90
2022-11-15T09:07:13.806Z,6.90
2022-11-15T09:10:19.896Z,6.90
2022-11-15T09:13:25.579Z,6.90
2022-11-15T09:16:33.601Z,7.00
2022-11-15T09:19:40.723Z,7.10
2022-11-15T09:22:46.951Z,7.20
2022-11-15T09:25:53.103Z,7.30
2022-11-15T09:28:59.274Z,7.50
2022-11-15T09:32:05.345Z,7.90
2022-11-15T09:35:12.933Z,8.10
2022-11-15T09:38:20.551Z,8.50
2022-11-15T09:41:40.828Z,8.80
2022-11-15T09:45:02.022Z,9.10
2022-11-15T09:48:27.122Z,9.30
2022-11-15T09:51:35.401Z,9.60
2022-11-15T09:54:52.114Z,9.90
2022-11-15T09:57:45.874Z,10.00
2022-11-15T10:00:47.465Z,10.20
2022-11-15T10:03:38.522Z,10.30
2022-11-15T10:06:28.433Z,10.60
2022-11-15T10:09:23.884Z,10.70
2022-11-15T10:12:15.353Z,10.90
2022-11-15T10:15:06.395Z,11.10
2022-11-15T10:18:10.708Z,11.30
2022-11-15T10:21:02.408Z,11.40
2022-11-15T10:23:50.698Z,11.60
2022-11-15T10:26:38.877Z,11.80
2022-11-15T10:29:27.676Z,12.00
2022-11-15T10:32:17.251Z,12.20
2022-11-15T10:35:20.919Z,12.40
2022-11-15T10:38:09.528Z,12.60
2022-11-15T10:41:09.989Z,12.60
2022-11-15T10:44:19.708Z,12.70
2022-11-15T10:47:23.789Z,12.90
2022-11-15T10:50:32.177Z,13.20
2022-11-15T10:53:25.707Z,13.40
2022-11-15T10:56:17.942Z,13.60
2022-11-15T10:59:06.790Z,13.90
2022-11-15T11:01:53.811Z,14.00
2022-11-15T11:04:52.781Z,14.30
2022-11-15T11:07:39.745Z,14.40
2022-11-15T11:13:37.137Z,14.80
2022-11-15T11:16:47.195Z,14.90
2022-11-15T11:19:46.033Z,15.00
2022-11-15T11:22:41.256Z,15.20
2022-11-15T11:25:36.928Z,15.30
2022-11-15T11:28:38.964Z,15.40
2022-11-15T11:31:34.978Z,15.50
2022-11-15T11:34:40.277Z,15.70
2022-11-15T11:37:35.906Z,15.70
2022-11-15T11:40:31.704Z,15.60
2022-11-15T11:43:28.611Z,15.50
2022-11-15T11:46:31.000Z,15.60
2022-11-15T11:49:25.648Z,15.60
2022-11-15T11:55:08.039Z,15.60
2022-11-15T11:58:07.693Z,15.60
2022-11-15T12:00:58.153Z,15.60
2022-11-15T12:03:54.182Z,15.60
2022-11-15T12:06:49.048Z,15.60
2022-11-15T12:09:40.472Z,15.60
2022-11-15T12:12:34.303Z,15.70
2022-11-15T12:15:26.242Z,15.60
2022-11-15T12:18:17.543Z,15.60
2022-11-15T12:21:09.734Z,15.60
2022-11-15T12:24:05.575Z,15.70
2022-11-15T12:26:59.493Z,15.60
2022-11-15T12:29:50.806Z,15.70
2022-11-15T12:32:42.237Z,15.70
2022-11-15T12:35:33.619Z,15.70
2022-11-15T12:38:54.486Z,15.70
2022-11-15T12:41:44.227Z,15.70
2022-11-15T12:45:01.303Z,15.80
2022-11-15T12:47:48.624Z,15.90
2022-11-15T12:50:59.149Z,15.90
2022-11-15T12:53:45.741Z,15.80
2022-11-15T12:56:33.130Z,15.80
2022-11-15T12:59:59.023Z,15.90
2022-11-15T13:02:47.613Z,16.00
2022-11-15T13:05:55.599Z,16.00
2022-11-15T13:08:49.446Z,16.00
2022-11-15T13:11:52.957Z,16.10
2022-11-15T13:14:46.238Z,16.10
2022-11-15T13:17:36.759Z,16.10
2022-11-15T13:20:28.445Z,16.10
2022-11-15T13:23:17.755Z,16.00
2022-11-15T13:26:14.333Z,16.00
2022-11-15T13:29:01.769Z,16.00
2022-11-15T13:31:50.650Z,16.00
2022-11-15T13:34:55.496Z,16.00
2022-11-15T13:37:44.140Z,16.00
2022-11-15T13:40:37.125Z,16.00
2022-11-15T13:43:37.242Z,16.00
2022-11-15T13:46:26.194Z,16.10
2022-11-15T13:49:14.424Z,16.10
2022-11-15T13:52:04.838Z,16.10
2022-11-15T13:54:59.555Z,16.10
2022-11-15T13:57:49.402Z,16.10
2022-11-15T14:00:41.295Z,16.20
2022-11-15T14:03:30.861Z,16.20
2022-11-15T14:06:22.209Z,16.20
2022-11-15T14:09:34.093Z,16.20
2022-11-15T14:12:30.410Z,16.30
2022-11-15T14:15:33.255Z,16.30
2022-11-15T14:18:44.142Z,16.30
2022-11-15T14:21:33.104Z,16.30
2022-11-15T14:24:21.994Z,16.30
2022-11-15T14:27:25.596Z,16.30
2022-11-15T14:30:18.560Z,16.30
2022-11-15T14:33:21.205Z,16.30
2022-11-15T14:36:13.480Z,16.40
2022-11-15T14:39:02.385Z,16.60
2022-11-15T14:41:49.839Z,16.70
2022-11-15T14:44:37.520Z,16.70
2022-11-15T14:47:25.597Z,16.60
2022-11-15T14:50:15.680Z,16.40
2022-11-15T14:53:03.267Z,16.20
2022-11-15T14:55:51.788Z,16.00
2022-11-15T14:58:39.021Z,15.80
2022-11-15T15:01:28.260Z,15.60
2022-11-15T15:07:03.811Z,15.30
2022-11-15T15:09:51.201Z,15.10
2022-11-15T15:12:40.203Z,14.90
2022-11-15T15:15:29.203Z,14.70
2022-11-15T15:18:16.667Z,14.60
2022-11-15T15:21:08.218Z,14.50
2022-11-15T15:23:56.175Z,14.40
2022-11-15T15:26:44.553Z,14.40
2022-11-15T15:29:33.061Z,14.30
2022-11-15T15:32:20.133Z,14.20
2022-11-15T15:35:07.357Z,14.10
2022-11-15T15:37:55.169Z,14.00
2022-11-15T15:40:42.748Z,13.90
2022-11-15T15:43:29.943Z,13.90
2022-11-15T15:46:20.771Z,13.90
2022-11-15T15:49:11.449Z,13.80
2022-11-15T15:51:58.871Z,13.70
2022-11-15T15:54:46.285Z,13.70
2022-11-15T15:57:33.396Z,13.60
2022-11-15T16:00:22.429Z,13.50
2022-11-15T16:03:11.203Z,13.50
2022-11-15T16:05:59.315Z,13.40
2022-11-15T16:09:08.134Z,13.30
2022-11-15T16:11:53.705Z,13.30
2022-11-15T16:14:40.963Z,13.20
2022-11-15T16:17:34.084Z,13.10
2022-11-15T16:20:31.954Z,13.00
2022-11-15T16:23:22.921Z,12.90
2022-11-15T16:26:20.394Z,12.80
2022-11-15T16:29:08.263Z,12.70
2022-11-15T16:31:55.395Z,12.70
2022-11-15T16:34:48.776Z,12.60
2022-11-15T16:37:46.493Z,12.50
2022-11-15T16:40:36.378Z,12.50
2022-11-15T16:43:23.531Z,12.30
2022-11-15T16:46:16.623Z,12.30
2022-11-15T16:49:03.700Z,12.20
2022-11-15T16:51:51.842Z,12.10
2022-11-15T16:54:40.441Z,12.10
2022-11-15T16:57:27.432Z,12.00
2022-11-15T17:00:16.793Z,12.00
2022-11-15T17:03:03.965Z,11.90
2022-11-15T17:05:51.634Z,11.80
2022-11-15T17:08:38.585Z,11.80
2022-11-15T17:11:27.180Z,11.70
2022-11-15T17:14:15.239Z,11.70
2022-11-15T17:17:02.330Z,11.60
2022-11-15T17:19:49.374Z,11.50
2022-11-15T17:22:37.138Z,11.50
2022-11-15T17:25:24.281Z,11.40
2022-11-15T17:28:14.241Z,11.30
2022-11-15T17:31:01.559Z,11.30
2022-11-15T17:33:49.191Z,11.20
2022-11-15T17:36:36.650Z,11.10
2022-11-15T17:39:25.090Z,11.10
2022-11-15T17:42:12.083Z,11.00
2022-11-15T17:45:03.860Z,11.00
2022-11-15T17:47:54.641Z,10.90
2022-11-15T17:50:41.901Z,10.90
2022-11-15T17:53:32.774Z,10.80
2022-11-15T17:56:21.368Z,10.80
2022-11-15T17:59:13.753Z,10.70
2022-11-15T18:02:06.257Z,10.70
2022-11-15T18:07:43.718Z,10.60
2022-11-15T18:10:30.606Z,10.50
2022-11-15T18:13:17.524Z,10.50
2022-11-15T18:16:06.275Z,10.40
2022-11-15T18:18:55.200Z,10.40
2022-11-15T18:21:57.495Z,10.30
2022-11-15T18:24:45.163Z,10.30
2022-11-15T18:27:32.228Z,10.30
2022-11-15T18:30:19.238Z,10.20
2022-11-15T18:33:06.338Z,10.20
2022-11-15T18:36:05.681Z,10.20
2022-11-15T18:38:56.777Z,10.20
2022-11-15T18:41:45.010Z,10.20
2022-11-15T18:44:32.279Z,10.10
2022-11-15T18:47:19.320Z,10.10
2022-11-15T18:50:06.702Z,10.10
2022-11-15T18:52:55.242Z,10.10
2022-11-15T18:55:42.093Z,10.10
2022-11-15T18:58:31.909Z,10.10
2022-11-15T19:01:20.935Z,10.10
2022-11-15T19:04:10.116Z,10.00
2022-11-15T19:06:57.498Z,10.00
2022-11-15T19:09:46.827Z,10.00
2022-11-15T19:12:33.771Z,10.00
2022-11-15T19:18:08.575Z,10.00
2022-11-15T19:20:57.229Z,10.00
2022-11-15T19:23:44.842Z,9.90
2022-11-15T19:26:33.496Z,9.90
2022-11-15T19:29:20.416Z,9.90
2022-11-15T19:32:07.276Z,9.80
2022-11-15T19:34:54.576Z,9.80
2022-11-15T19:37:41.771Z,9.80
2022-11-15T19:40:28.930Z,9.70
2022-11-15T19:43:17.379Z,9.70
2022-11-15T19:46:06.622Z,9.70
2022-11-15T19:48:54.291Z,9.70
2022-11-15T19:51:45.287Z,9.70
2022-11-15T19:54:32.217Z,9.60
2022-11-15T19:57:19.172Z,9.60
2022-11-15T20:00:09.132Z,9.70
2022-11-15T20:02:56.201Z,9.60
2022-11-15T20:05:43.554Z,9.60
2022-11-15T20:08:30.977Z,9.60
2022-11-15T20:11:19.673Z,9.60
2022-11-15T20:14:09.562Z,9.50
2022-11-15T20:16:58.205Z,9.60
2022-11-15T20:19:45.065Z,9.60
2022-11-15T20:22:32.453Z,9.50
2022-11-15T20:25:19.573Z,9.50
2022-11-15T20:28:07.191Z,9.50
2022-11-15T20:30:56.303Z,9.50
2022-11-15T20:33:44.957Z,9.50
2022-11-15T20:36:32.054Z,9.50
2022-11-15T20:39:19.228Z,9.50
2022-11-15T20:42:06.490Z,9.50
2022-11-15T20:44:53.884Z,9.50
2022-11-15T20:47:41.130Z,9.50
2022-11-15T20:50:42.647Z,9.50
2022-11-15T20:53:31.691Z,9.50
2022-11-15T20:56:23.886Z,9.50
2022-11-15T20:59:11.159Z,9.50
2022-11-15T21:01:58.133Z,9.50
2022-11-15T21:04:45.260Z,9.50
2022-11-15T21:07:33.869Z,9.50
2022-11-15T21:10:34.531Z,9.50
2022-11-15T21:13:21.308Z,9.50
2022-11-15T21:16:08.228Z,9.50
2022-11-15T21:18:54.385Z,9.50
2022-11-15T21:21:41.980Z,9.50
2022-11-15T21:24:30.550Z,9.50
2022-11-15T21:27:19.333Z,9.40
2022-11-15T21:30:06.901Z,9.40
2022-11-15T21:32:54.272Z,9.40
2022-11-15T21:35:42.957Z,9.40
2022-11-15T21:38:30.829Z,9.40
2022-11-15T21:41:19.956Z,9.40
2022-11-15T21:44:06.990Z,9.40
2022-11-15T21:46:54.294Z,9.50
2022-11-15T21:49:41.663Z,9.50
2022-11-15T21:52:28.477Z,9.40
2022-11-15T21:55:15.835Z,9.50
2022-11-15T21:58:04.835Z,9.40
2022-11-15T22:01:05.790Z,9.40
2022-11-15T22:03:51.666Z,9.40
2022-11-15T22:06:37.795Z,9.40
2022-11-15T22:09:23.739Z,9.40
2022-11-15T22:12:10.791Z,9.30
2022-11-15T22:14:59.727Z,9.30
2022-11-15T22:18:00.730Z,9.30
2022-11-15T22:20:55.211Z,9.30
2022-11-15T22:23:43.611Z,9.30
2022-11-15T22:26:30.930Z,9.30
2022-11-15T22:29:18.362Z,9.20
2022-11-15T22:32:06.855Z,9.30
2022-11-15T22:34:54.043Z,9.30
2022-11-15T22:37:41.282Z,9.20
2022-11-15T22:40:28.694Z,9.20
2022-11-15T22:43:17.810Z,9.20
2022-11-15T22:46:05.794Z,9.20
2022-11-15T22:48:54.462Z,9.20
2022-11-15T22:51:41.591Z,9.20
2022-11-15T22:54:29.437Z,9.20
2022-11-15T22:57:16.306Z,9.20
2022-11-15T23:00:03.865Z,9.10
2022-11-15T23:02:54.361Z,9.10
2022-11-15T23:05:43.193Z,9.10
2022-11-15T23:08:30.474Z,9.10
2022-11-15T23:11:31.908Z,9.10
2022-11-15T23:14:19.275Z,9.00
2022-11-15T23:17:06.397Z,8.90
2022-11-15T23:19:53.748Z,8.90
2022-11-15T23:22:49.869Z,8.90
2022-11-15T23:25:37.366Z,8.90
2022-11-15T23:28:24.617Z,8.80
2022-11-15T23:31:26.073Z,8.80
2022-11-15T23:34:12.189Z,8.70
2022-11-15T23:36:58.662Z,8.70
2022-11-15T23:39:46.432Z,8.70
2022-11-15T23:42:33.622Z,8.60
2022-11-15T23:45:21.083Z,8.50
2022-11-15T23:48:08.342Z,8.40
2022-11-15T23:50:55.912Z,8.40
2022-11-15T23:53:43.662Z,8.40
2022-11-15T23:56:32.615Z,8.30
2022-11-15T23:59:19.607Z,8.40
